Hauptseite
METAR-TAF:

METAR-TAF

Flughäfen :

Flugplatz Schwäbisch Hall-Hessental (Adolf Würth Airport)

Schwäbisch Hall, Deutschland

Breite: 49-07-06N, Länge: 9-47-02E, Höhe: 398 m

Beobachtung

Neuester Wetterbericht von vor 38 Minuten, um 15:50 UTC
Wind 7 kt aus West
Temperatur 21°C
Luftfeuchtigkeit 56%
Luftdruck 1019 hPa
Sichtweite 10 km oder mehr
keine Wolken unter 1500 m und keine Kumulonimbus oder Gewitterwolken

METAR: EDTY 141550Z 28007KT CAVOK 21/12 Q1019

Zeit: 18:28 (16:28 UTC)

Prognose

Neuester Wetterbericht von vor 2 Stunden und 28 Minuten, um 14:00 UTC
Gültige Prognose vom 14 um 15 UTC bis 14 um 24 UTC
Wind 10 kt aus West/Nordwest
Sichtweite 10 km oder mehr
Aufgelockert bewölkt in der Höhe von 4500 ft
Übergehend zu
vom 14 um 17 UTC bis 14 um 19 UTC
Wind 4 kt aus West

TAF: EDTY 141400Z 1415/1424 29010KT 9999 SCT045 BECMG 1417/1419 28004KT

Wetterbeobachtungen und Prognosen von mehr als 4000 Flughäfen (METAR und TAF Bericht).

Die verfügbaren Stationen werden durch gelbe und rote Markierungen auf der Karte dargestellt.

Führen Sie die Maus auf sie, um den Namen der Station zu sehen.

Darauf klicken, um die Beobachtung von Wetterbeobachtungen und Prognosen zu sehen.

Um die Karte zu ändern : klicken Sie auf den grünen Tasten mit einem schwarzen Kreuz Zum Vergrößern, auf den grünen Button mit einem Gedankenstrich zu verkleinern, oder auf die grünen Pfeile für benachbarte Karten.


METAR-TAF: